Time;durP1;ratioP1;P1;durP2;ratioP2;P2;SDS_P1;SDS_P2;PMS_P1;PMS_P2;Temp;Humidity;BMP_temperature;BMP_pressure;BME280_temperature;BME280_humidity;BME280_pressure;Samples;Min_cycle;Max_cycle;Signal;HPM_P1;HPM_P2
2023/08/02 00:00:40;;;;;;;3.25;1.75;;;18.70;99.90;;;;;;4179259;28;20055;-59
2023/08/02 00:03:01;;;;;;;3.33;1.48;;;18.80;99.90;;;;;;4179585;28;20082;-59
2023/08/02 00:05:20;;;;;;;3.65;1.67;;;18.70;99.90;;;;;;4179922;28;20052;-59
2023/08/02 00:07:41;;;;;;;4.88;1.55;;;18.50;99.90;;;;;;4180208;28;20048;-59
2023/08/02 00:10:03;;;;;;;3.63;1.60;;;18.50;99.90;;;;;;4179713;28;20040;-59
2023/08/02 00:12:23;;;;;;;4.03;1.50;;;18.30;99.90;;;;;;4180738;28;20103;-59
2023/08/02 00:14:42;;;;;;;2.58;1.75;;;18.20;99.90;;;;;;4180076;28;20072;-59
2023/08/02 00:17:03;;;;;;;2.10;1.38;;;18.30;99.90;;;;;;4178263;28;20052;-59
2023/08/02 00:19:23;;;;;;;6.43;2.42;;;18.40;99.90;;;;;;4178360;28;20057;-59
2023/08/02 00:21:44;;;;;;;2.83;1.50;;;18.50;99.90;;;;;;4184742;28;20044;-59
2023/08/02 00:24:04;;;;;;;7.47;1.83;;;18.40;99.90;;;;;;4177227;28;20048;-59
2023/08/02 00:38:09;;;;;;;4.30;1.65;;;18.20;99.90;;;;;;4179694;28;20029;-59
2023/08/02 00:40:29;;;;;;;2.83;1.58;;;18.30;99.90;;;;;;4178991;28;20044;-59
2023/08/02 00:42:49;;;;;;;1.73;1.63;;;18.30;99.90;;;;;;4176696;28;20048;-58
2023/08/02 00:45:09;;;;;;;3.78;1.90;;;18.30;99.90;;;;;;4181721;28;20068;-59
2023/08/02 00:47:33;;;;;;;2.05;1.95;;;18.30;99.90;;;;;;4179761;28;20088;-58
2023/08/02 00:49:54;;;;;;;2.97;1.55;;;18.30;99.90;;;;;;4176014;28;20297;-58
2023/08/02 00:52:13;;;;;;;2.05;1.95;;;18.30;99.90;;;;;;4178609;28;20051;-58
2023/08/02 00:54:33;;;;;;;2.25;1.40;;;18.20;99.90;;;;;;4176892;28;20370;-59
2023/08/02 00:56:54;;;;;;;5.68;1.60;;;18.30;99.90;;;;;;4180709;28;20052;-58
2023/08/02 00:59:14;;;;;;;2.33;2.22;;;18.30;99.90;;;;;;4175743;28;20109;-58
2023/08/02 01:01:34;;;;;;;3.20;2.10;;;18.20;99.90;;;;;;4172482;28;20402;-59
2023/08/02 01:03:56;;;;;;;3.05;1.73;;;18.20;99.90;;;;;;4178291;28;20048;-59
2023/08/02 01:06:43;;;;;;;6.82;1.63;;;18.20;99.90;;;;;;4181165;28;20091;-58
2023/08/02 01:09:35;;;;;;;2.97;1.58;;;18.20;99.90;;;;;;4180473;28;20119;-59
2023/08/02 01:12:07;;;;;;;1.90;1.80;;;18.20;99.90;;;;;;4180164;28;20095;-58
2023/08/02 01:14:28;;;;;;;4.40;2.28;;;18.20;99.90;;;;;;4180195;28;20044;-58
2023/08/02 01:16:52;;;;;;;2.28;1.80;;;18.20;99.90;;;;;;4178277;28;20367;-59
2023/08/02 01:19:12;;;;;;;1.92;1.65;;;18.20;99.90;;;;;;4181223;28;20082;-58
2023/08/02 01:21:32;;;;;;;2.42;1.85;;;18.30;99.90;;;;;;4184727;28;20430;-59
2023/08/02 01:23:52;;;;;;;2.78;1.80;;;18.30;99.90;;;;;;4174863;28;20293;-58
2023/08/02 01:26:13;;;;;;;1.92;1.73;;;18.20;99.90;;;;;;4178010;28;20040;-58
2023/08/02 01:28:42;;;;;;;3.15;2.00;;;18.20;99.90;;;;;;4184042;28;20367;-59
2023/08/02 01:31:03;;;;;;;3.58;2.25;;;18.20;99.90;;;;;;4180088;28;20056;-58
2023/08/02 01:33:25;;;;;;;3.38;1.80;;;18.20;99.90;;;;;;4180165;28;20048;-58
2023/08/02 01:35:46;;;;;;;2.15;2.05;;;18.30;99.90;;;;;;4179319;28;20049;-59
2023/08/02 01:38:06;;;;;;;3.65;2.25;;;18.30;99.90;;;;;;4179718;28;20410;-59
2023/08/02 01:40:26;;;;;;;5.72;1.90;;;18.20;99.90;;;;;;4181629;28;20067;-58
2023/08/02 01:42:45;;;;;;;3.88;1.92;;;18.20;99.90;;;;;;4180600;28;20087;-58
2023/08/02 01:45:06;;;;;;;3.58;1.60;;;18.00;99.90;;;;;;4180755;28;20260;-59
2023/08/02 01:47:25;;;;;;;4.53;1.88;;;17.90;99.90;;;;;;4180097;28;20052;-59
2023/08/02 01:49:46;;;;;;;2.17;2.00;;;17.80;99.90;;;;;;4179116;28;20096;-58
2023/08/02 01:52:06;;;;;;;2.53;2.28;;;17.80;99.90;;;;;;4183271;28;20060;-58
2023/08/02 01:54:26;;;;;;;3.65;1.90;;;17.90;99.90;;;;;;4187718;28;20252;-58
2023/08/02 01:56:46;;;;;;;2.00;1.90;;;17.80;99.90;;;;;;4181981;28;20093;-58
2023/08/02 01:59:05;;;;;;;2.63;2.42;;;17.60;99.90;;;;;;4181599;28;20241;-58
2023/08/02 02:01:25;;;;;;;2.00;1.90;;;17.50;99.90;;;;;;4181794;28;20072;-58
2023/08/02 02:03:45;;;;;;;4.57;1.60;;;17.50;99.90;;;;;;4182988;28;20122;-58
2023/08/02 02:06:06;;;;;;;2.10;1.27;;;17.70;99.90;;;;;;4182208;28;20048;-59
2023/08/02 02:08:26;;;;;;;2.95;2.55;;;17.70;99.90;;;;;;4181328;28;20047;-59
2023/08/02 02:10:50;;;;;;;2.97;1.75;;;17.80;99.90;;;;;;4186278;28;20052;-59
2023/08/02 02:13:09;;;;;;;2.88;1.98;;;17.80;99.90;;;;;;4177583;28;20104;-59
2023/08/02 02:15:29;;;;;;;2.35;1.67;;;17.60;99.90;;;;;;4179482;28;20048;-59
2023/08/02 02:17:49;;;;;;;3.97;2.28;;;17.70;99.90;;;;;;4180965;28;20076;-59
2023/08/02 02:20:10;;;;;;;2.17;1.70;;;17.70;99.90;;;;;;4179013;28;20052;-58
2023/08/02 02:22:30;;;;;;;3.25;1.77;;;17.60;99.90;;;;;;4177438;28;20063;-59
2023/08/02 02:24:50;;;;;;;3.30;2.22;;;17.60;99.90;;;;;;4181009;28;20080;-59
2023/08/02 02:27:09;;;;;;;2.95;2.15;;;17.70;99.90;;;;;;4184497;28;20044;-58
2023/08/02 02:29:30;;;;;;;2.53;2.28;;;17.60;99.90;;;;;;4184893;28;20047;-59
2023/08/02 02:31:49;;;;;;;3.58;2.35;;;17.60;99.90;;;;;;4181903;28;20048;-58
2023/08/02 02:34:09;;;;;;;2.90;2.53;;;17.70;99.90;;;;;;4182648;28;20240;-59
2023/08/02 02:36:30;;;;;;;2.63;1.85;;;17.80;99.90;;;;;;4182041;28;20369;-59
2023/08/02 02:38:49;;;;;;;3.53;2.75;;;17.80;99.90;;;;;;4180105;28;20233;-59
2023/08/02 02:41:09;;;;;;;1.85;1.75;;;17.50;99.90;;;;;;4179736;28;20048;-58
2023/08/02 02:43:29;;;;;;;4.13;1.98;;;17.10;99.90;;;;;;4183595;28;20268;-59
2023/08/02 02:45:49;;;;;;;2.90;1.75;;;17.20;99.90;;;;;;4178230;28;20095;-59
2023/08/02 02:48:08;;;;;;;5.47;2.80;;;17.10;99.90;;;;;;4178209;28;20401;-58
2023/08/02 02:50:28;;;;;;;3.67;2.55;;;17.10;99.90;;;;;;4182169;28;20193;-58
2023/08/02 02:52:48;;;;;;;5.30;2.03;;;17.10;99.90;;;;;;4186994;28;20044;-59
2023/08/02 02:55:09;;;;;;;5.88;2.80;;;17.20;99.90;;;;;;4181287;28;20084;-58
2023/08/02 02:57:29;;;;;;;1.90;1.80;;;17.20;99.90;;;;;;4180500;28;20371;-58
2023/08/02 02:59:49;;;;;;;3.75;2.10;;;17.10;99.90;;;;;;4174090;28;20044;-58
2023/08/02 03:02:09;;;;;;;2.33;1.95;;;17.20;99.90;;;;;;4181131;28;20244;-59
2023/08/02 03:04:29;;;;;;;5.00;2.05;;;17.10;99.90;;;;;;4180967;28;20059;-58
2023/08/02 03:06:50;;;;;;;3.95;2.20;;;17.00;99.90;;;;;;4180975;28;20048;-58
2023/08/02 03:09:10;;;;;;;2.05;1.85;;;17.00;99.90;;;;;;4179944;28;20059;-58
2023/08/02 03:11:30;;;;;;;1.85;1.75;;;16.90;99.90;;;;;;4179314;28;20076;-59
2023/08/02 03:13:49;;;;;;;2.33;2.13;;;17.10;99.90;;;;;;4177587;28;20047;-58
2023/08/02 03:16:09;;;;;;;2.38;2.15;;;17.10;99.90;;;;;;4182377;28;20052;-59
2023/08/02 03:18:29;;;;;;;3.88;2.35;;;17.00;99.90;;;;;;4183012;28;20088;-59
2023/08/02 03:20:49;;;;;;;1.90;1.80;;;17.10;99.90;;;;;;4179265;28;20366;-58
2023/08/02 03:23:09;;;;;;;5.28;2.72;;;17.10;99.90;;;;;;4180997;28;20052;-58
2023/08/02 03:25:29;;;;;;;2.90;2.20;;;17.10;99.90;;;;;;4181057;28;20044;-58
2023/08/02 03:27:49;;;;;;;2.85;1.85;;;17.10;99.90;;;;;;4180973;28;20379;-59
2023/08/02 03:30:09;;;;;;;2.40;2.17;;;17.10;99.90;;;;;;4181225;28;20048;-59
2023/08/02 03:32:29;;;;;;;4.75;2.13;;;16.90;99.90;;;;;;4180632;28;20052;-59
2023/08/02 03:34:49;;;;;;;2.95;2.28;;;16.90;99.90;;;;;;4181035;28;20048;-59
2023/08/02 03:37:09;;;;;;;1.98;1.88;;;16.90;99.90;;;;;;4178484;28;20084;-59
2023/08/02 03:39:29;;;;;;;2.95;2.65;;;16.70;99.90;;;;;;4180998;28;20236;-59
2023/08/02 03:41:49;;;;;;;3.60;2.80;;;16.80;99.90;;;;;;4183473;28;20055;-59
2023/08/02 03:44:09;;;;;;;2.75;2.40;;;16.90;99.90;;;;;;4178048;28;20055;-59
2023/08/02 03:46:29;;;;;;;2.55;2.33;;;16.90;99.90;;;;;;4176290;28;20048;-59
2023/08/02 03:48:52;;;;;;;2.70;2.40;;;16.90;99.90;;;;;;4179742;28;20049;-58
2023/08/02 03:51:12;;;;;;;2.60;2.40;;;17.00;99.90;;;;;;4179013;28;20052;-59
2023/08/02 03:53:32;;;;;;;2.47;2.38;;;17.00;99.90;;;;;;4180088;28;20312;-59
2023/08/02 03:55:52;;;;;;;4.35;2.72;;;16.90;99.90;;;;;;4181379;28;20116;-59
2023/08/02 03:58:11;;;;;;;3.85;2.65;;;16.90;99.90;;;;;;4181236;28;20052;-59
2023/08/02 04:00:31;;;;;;;2.58;2.47;;;16.90;99.90;;;;;;4183325;28;20036;-59
2023/08/02 04:02:51;;;;;;;3.92;2.28;;;16.90;99.90;;;;;;4179955;28;20056;-59
2023/08/02 04:05:11;;;;;;;4.30;2.80;;;16.90;99.90;;;;;;4181326;28;20052;-59
2023/08/02 04:07:31;;;;;;;1.98;1.88;;;17.00;99.90;;;;;;4183168;28;20127;-59
2023/08/02 04:09:51;;;;;;;2.97;2.58;;;17.00;99.90;;;;;;4173116;28;20087;-59
2023/08/02 04:12:11;;;;;;;2.92;2.72;;;16.90;99.90;;;;;;4177571;28;20086;-58
2023/08/02 04:14:31;;;;;;;3.05;2.55;;;16.90;99.90;;;;;;4182091;28;20105;-59
2023/08/02 04:16:51;;;;;;;2.47;2.25;;;16.90;99.90;;;;;;4180023;28;20252;-59
2023/08/02 04:19:11;;;;;;;2.35;2.13;;;16.60;99.90;;;;;;4175670;28;20367;-59
2023/08/02 04:21:31;;;;;;;5.88;2.13;;;16.70;99.90;;;;;;4188102;28;20052;-59
2023/08/02 04:23:52;;;;;;;4.75;2.03;;;16.80;99.90;;;;;;4179335;28;20248;-58
2023/08/02 04:26:12;;;;;;;2.50;2.40;;;16.80;99.90;;;;;;4181363;28;20144;-59
2023/08/02 04:28:31;;;;;;;2.72;2.53;;;16.80;99.90;;;;;;4180904;28;20083;-59
2023/08/02 04:30:52;;;;;;;3.67;2.10;;;16.80;99.90;;;;;;4180166;28;20087;-58
2023/08/02 04:33:12;;;;;;;3.13;2.55;;;16.80;99.90;;;;;;4179610;28;20047;-59
2023/08/02 04:35:32;;;;;;;2.00;1.80;;;16.80;99.90;;;;;;4178808;28;20289;-59
2023/08/02 04:37:52;;;;;;;11.90;2.53;;;16.80;99.90;;;;;;4178447;28;20051;-59
2023/08/02 04:40:12;;;;;;;2.28;1.90;;;16.80;99.90;;;;;;4177185;28;20099;-59
2023/08/02 04:42:32;;;;;;;4.93;2.15;;;16.90;99.90;;;;;;4183056;28;20131;-59
2023/08/02 04:44:51;;;;;;;3.22;2.63;;;16.90;99.90;;;;;;4176827;28;20057;-59
2023/08/02 04:47:11;;;;;;;5.50;2.45;;;16.80;99.90;;;;;;4179852;28;20248;-59
2023/08/02 04:49:30;;;;;;;3.60;1.80;;;16.70;99.90;;;;;;4181247;28;20045;-59
2023/08/02 04:51:50;;;;;;;3.50;1.70;;;16.70;99.90;;;;;;4179568;28;20304;-59
2023/08/02 04:54:10;;;;;;;2.40;2.20;;;16.70;99.90;;;;;;4179953;28;20044;-59
2023/08/02 04:56:31;;;;;;;2.38;2.28;;;16.70;99.90;;;;;;4181386;28;20036;-59
2023/08/02 04:58:50;;;;;;;2.90;2.40;;;16.60;99.90;;;;;;4180140;28;20056;-59
2023/08/02 05:01:10;;;;;;;4.95;2.30;;;16.60;99.90;;;;;;4179612;28;20044;-58
2023/08/02 05:03:30;;;;;;;8.18;2.33;;;16.70;99.90;;;;;;4179704;28;20048;-58
2023/08/02 05:05:51;;;;;;;3.00;2.80;;;16.80;99.90;;;;;;4183838;28;20056;-59
2023/08/02 05:08:11;;;;;;;3.90;2.33;;;16.80;99.90;;;;;;4177405;28;20048;-59
2023/08/02 05:10:30;;;;;;;4.13;2.30;;;16.80;99.90;;;;;;4178470;28;20052;-59
2023/08/02 05:12:50;;;;;;;3.88;2.83;;;16.70;99.90;;;;;;4180665;28;20121;-59
2023/08/02 05:15:10;;;;;;;2.40;2.20;;;16.80;99.90;;;;;;4181730;28;20051;-59
2023/08/02 05:17:30;;;;;;;3.10;2.83;;;17.00;99.90;;;;;;4179575;28;20056;-58
2023/08/02 05:19:50;;;;;;;2.78;2.53;;;17.10;99.90;;;;;;4182571;28;20052;-59
2023/08/02 05:22:10;;;;;;;2.53;1.85;;;17.20;99.90;;;;;;4182721;28;20232;-58
2023/08/02 05:24:30;;;;;;;3.38;2.35;;;17.30;99.90;;;;;;4183667;28;20052;-58
2023/08/02 05:26:49;;;;;;;3.50;2.50;;;17.50;99.90;;;;;;4180488;28;20049;-58
2023/08/02 05:29:09;;;;;;;2.35;2.05;;;17.70;99.90;;;;;;4182824;28;20048;-59
2023/08/02 05:31:29;;;;;;;5.65;3.95;;;17.90;99.90;;;;;;4184243;28;20060;-59
2023/08/02 05:33:49;;;;;;;3.95;2.28;;;18.00;99.90;;;;;;4183910;28;20078;-59
2023/08/02 05:36:11;;;;;;;3.38;2.15;;;18.10;99.90;;;;;;4180735;28;20083;-59
2023/08/02 05:38:33;;;;;;;5.03;2.30;;;18.10;99.90;;;;;;4183403;28;20055;-59
2023/08/02 05:40:53;;;;;;;2.17;1.80;;;18.00;99.90;;;;;;4181241;28;20076;-59
2023/08/02 05:43:13;;;;;;;6.47;1.85;;;18.00;99.90;;;;;;4180291;28;20103;-59
2023/08/02 05:45:33;;;;;;;5.95;2.78;;;17.90;99.90;;;;;;4181957;28;20244;-59
2023/08/02 05:47:53;;;;;;;2.15;2.05;;;17.90;99.90;;;;;;4184348;28;20366;-59
2023/08/02 05:50:13;;;;;;;1.52;1.40;;;17.90;99.90;;;;;;4185169;28;20048;-59
2023/08/02 05:52:33;;;;;;;4.32;2.10;;;18.00;99.90;;;;;;4183665;28;20044;-59
2023/08/02 05:54:53;;;;;;;7.53;2.17;;;18.00;99.90;;;;;;4181121;28;20084;-59
2023/08/02 05:57:13;;;;;;;4.05;3.00;;;18.20;99.90;;;;;;4182731;28;20039;-59
2023/08/02 05:59:33;;;;;;;3.95;2.17;;;18.30;99.90;;;;;;4181280;28;20060;-59
2023/08/02 06:01:53;;;;;;;5.57;2.03;;;18.40;99.90;;;;;;4181478;28;20406;-59
2023/08/02 06:04:13;;;;;;;2.53;2.33;;;18.50;99.90;;;;;;4181456;28;20236;-59
2023/08/02 06:06:33;;;;;;;6.20;2.47;;;18.60;99.90;;;;;;4179702;28;20090;-59
2023/08/02 06:08:53;;;;;;;2.40;1.52;;;18.90;99.90;;;;;;4177893;28;20107;-59
2023/08/02 06:11:13;;;;;;;2.42;1.63;;;19.10;99.90;;;;;;4182221;28;20052;-59
2023/08/02 06:13:33;;;;;;;6.05;2.95;;;19.20;99.90;;;;;;4185956;28;20386;-59
2023/08/02 06:15:53;;;;;;;3.25;1.50;;;19.30;99.90;;;;;;4180060;28;20080;-59
2023/08/02 06:18:13;;;;;;;3.15;2.15;;;19.50;99.90;;;;;;4181308;28;20079;-59
2023/08/02 06:20:33;;;;;;;3.72;1.50;;;19.80;99.90;;;;;;4183750;28;20087;-59
2023/08/02 06:22:53;;;;;;;2.33;1.70;;;20.10;99.90;;;;;;4182171;28;20148;-59
2023/08/02 06:25:13;;;;;;;7.80;2.22;;;20.40;99.90;;;;;;4180243;28;20072;-59
2023/08/02 06:27:32;;;;;;;3.25;1.70;;;20.70;99.90;;;;;;4181180;28;20394;-59
2023/08/02 06:29:52;;;;;;;3.17;1.60;;;21.00;99.90;;;;;;4181033;28;20060;-59
2023/08/02 06:32:12;;;;;;;2.97;1.58;;;21.40;99.90;;;;;;4182306;28;20148;-59
2023/08/02 06:34:32;;;;;;;4.10;2.03;;;21.70;99.90;;;;;;4180420;28;20084;-59
2023/08/02 06:36:52;;;;;;;10.27;2.25;;;22.00;99.90;;;;;;4182953;28;20036;-59
2023/08/02 06:39:12;;;;;;;2.45;1.25;;;22.20;99.90;;;;;;4178787;28;20091;-59
2023/08/02 06:41:32;;;;;;;2.20;1.45;;;22.40;99.90;;;;;;4178597;28;20075;-59
2023/08/02 06:43:52;;;;;;;3.05;1.23;;;22.70;99.90;;;;;;4180848;28;20044;-59
2023/08/02 06:46:12;;;;;;;4.90;1.63;;;22.90;99.90;;;;;;4181650;28;20236;-59
2023/08/02 06:48:32;;;;;;;3.45;2.72;;;22.80;99.90;;;;;;4181297;28;20075;-59
2023/08/02 06:50:52;;;;;;;3.60;2.33;;;23.00;99.90;;;;;;4181800;28;20048;-59
2023/08/02 06:53:12;;;;;;;4.65;1.38;;;23.40;99.90;;;;;;4182982;28;20051;-59
2023/08/02 06:55:32;;;;;;;4.63;2.15;;;23.50;99.90;;;;;;4185486;28;20107;-59
2023/08/02 06:57:51;;;;;;;3.05;1.00;;;23.50;99.90;;;;;;4180242;28;20051;-59
2023/08/02 07:00:11;;;;;;;7.05;1.45;;;23.80;99.90;;;;;;4181487;28;20055;-59
2023/08/02 07:02:31;;;;;;;4.40;1.13;;;24.20;99.90;;;;;;4182557;28;20048;-59
2023/08/02 07:04:51;;;;;;;5.63;1.20;;;24.40;99.90;;;;;;4185933;28;20366;-59
2023/08/02 07:07:11;;;;;;;3.05;1.10;;;24.70;99.90;;;;;;4177983;28;20063;-59
2023/08/02 07:09:32;;;;;;;4.78;1.48;;;24.90;99.90;;;;;;4180465;28;20108;-59
2023/08/02 07:11:52;;;;;;;3.90;1.25;;;25.10;99.50;;;;;;4185304;28;20048;-59
2023/08/02 07:14:12;;;;;;;3.50;1.55;;;25.00;99.90;;;;;;4178057;28;20064;-59
2023/08/02 07:16:32;;;;;;;4.22;1.60;;;25.10;99.90;;;;;;4181628;28;20065;-59
2023/08/02 07:18:52;;;;;;;6.47;1.85;;;25.00;99.90;;;;;;4180163;28;20240;-59
2023/08/02 07:21:12;;;;;;;3.40;1.45;;;25.30;99.90;;;;;;4181273;28;20079;-58
2023/08/02 07:23:32;;;;;;;3.17;1.13;;;25.80;99.90;;;;;;4180349;28;20092;-59
2023/08/02 07:25:52;;;;;;;2.20;1.10;;;26.00;99.90;;;;;;4179903;28;20109;-58
2023/08/02 07:28:14;;;;;;;3.60;1.10;;;26.10;99.90;;;;;;4180512;28;20075;-59
2023/08/02 07:30:34;;;;;;;5.45;1.00;;;25.80;99.90;;;;;;4179071;28;20086;-59
2023/08/02 07:32:54;;;;;;;5.13;1.95;;;25.80;99.90;;;;;;4178864;28;20225;-59
2023/08/02 07:35:14;;;;;;;6.63;1.52;;;25.90;99.90;;;;;;4181073;28;20140;-59
2023/08/02 07:37:34;;;;;;;5.35;1.00;;;25.80;99.90;;;;;;4186856;28;20367;-59
2023/08/02 07:39:54;;;;;;;2.65;1.08;;;25.50;99.90;;;;;;4178309;28;20337;-59
2023/08/02 07:42:15;;;;;;;6.18;1.30;;;25.20;99.90;;;;;;4179435;28;20045;-59
2023/08/02 07:44:36;;;;;;;2.35;1.00;;;25.70;99.90;;;;;;4180067;28;20094;-59
2023/08/02 07:46:55;;;;;;;2.10;0.93;;;25.80;99.60;;;;;;4181013;28;20060;-60
2023/08/02 07:49:16;;;;;;;9.25;1.30;;;25.50;99.30;;;;;;4180708;28;20056;-60
2023/08/02 07:51:36;;;;;;;3.75;1.10;;;25.40;99.40;;;;;;4180897;28;20048;-60
2023/08/02 07:53:56;;;;;;;3.80;1.20;;;25.40;99.60;;;;;;4179976;28;20043;-60
2023/08/02 07:56:16;;;;;;;4.85;1.52;;;25.50;99.90;;;;;;4178923;28;20148;-60
2023/08/02 07:58:37;;;;;;;1.90;0.90;;;25.60;99.90;;;;;;4180355;28;20052;-59
2023/08/02 08:00:57;;;;;;;5.75;1.20;;;25.70;99.90;;;;;;4182717;28;20079;-60
2023/08/02 08:03:16;;;;;;;4.68;1.17;;;26.00;99.50;;;;;;4178626;28;20048;-59
2023/08/02 08:05:36;;;;;;;3.75;1.00;;;26.20;99.90;;;;;;4178476;28;20052;-60
2023/08/02 08:07:56;;;;;;;3.97;1.00;;;26.30;99.40;;;;;;4179679;28;20083;-59
2023/08/02 08:10:15;;;;;;;3.33;1.10;;;26.30;99.40;;;;;;4177813;28;20059;-59
2023/08/02 08:12:38;;;;;;;3.67;1.00;;;25.90;99.70;;;;;;4180419;28;20048;-59
2023/08/02 08:14:58;;;;;;;7.28;1.25;;;26.00;99.20;;;;;;4181016;28;20044;-59
2023/08/02 08:17:17;;;;;;;4.80;1.10;;;25.90;99.80;;;;;;4181213;28;20048;-59
2023/08/02 08:19:37;;;;;;;5.07;0.90;;;25.90;99.80;;;;;;4181412;28;20084;-59
2023/08/02 08:21:57;;;;;;;1.42;1.30;;;25.80;99.40;;;;;;4177922;28;20052;-59
2023/08/02 08:24:17;;;;;;;2.42;1.10;;;25.60;99.80;;;;;;4179302;28;20071;-59
2023/08/02 08:26:37;;;;;;;4.80;1.45;;;25.50;99.90;;;;;;4181030;28;20076;-59
2023/08/02 08:28:56;;;;;;;2.65;1.30;;;25.60;99.90;;;;;;4185319;28;20102;-59
2023/08/02 08:31:17;;;;;;;3.97;1.10;;;25.60;99.50;;;;;;4177864;28;20164;-60
2023/08/02 08:33:37;;;;;;;4.93;1.17;;;26.40;98.40;;;;;;4172932;28;20064;-59
2023/08/02 08:35:57;;;;;;;3.20;0.90;;;27.00;97.60;;;;;;4181593;28;20052;-60
2023/08/02 08:38:17;;;;;;;2.42;1.00;;;27.10;97.90;;;;;;4175264;28;20112;-59
2023/08/02 08:40:36;;;;;;;2.40;0.82;;;27.10;97.50;;;;;;4177924;28;20049;-59
2023/08/02 08:42:56;;;;;;;5.43;1.17;;;26.70;97.60;;;;;;4180749;28;20048;-60
2023/08/02 08:45:21;;;;;;;4.55;1.10;;;27.30;98.40;;;;;;4177806;28;20084;-59
2023/08/02 08:47:43;;;;;;;3.75;1.30;;;27.10;96.40;;;;;;4180532;28;20052;-59
2023/08/02 08:50:04;;;;;;;4.38;1.45;;;27.00;97.70;;;;;;4172753;28;20091;-59
2023/08/02 08:52:24;;;;;;;2.63;0.90;;;27.80;96.30;;;;;;4177764;28;20079;-60
2023/08/02 08:54:44;;;;;;;3.53;1.10;;;27.70;96.30;;;;;;4177906;28;20109;-59
2023/08/02 08:57:07;;;;;;;7.40;1.23;;;27.90;96.90;;;;;;4177927;28;20044;-60
2023/08/02 08:59:28;;;;;;;5.57;0.93;;;27.90;95.50;;;;;;4179929;28;20063;-60
2023/08/02 09:01:49;;;;;;;3.58;0.77;;;28.00;95.70;;;;;;4177210;28;20647;-60
2023/08/02 09:04:09;;;;;;;2.75;1.02;;;28.20;95.20;;;;;;4177066;28;20112;-60
2023/08/02 09:06:30;;;;;;;1.70;0.90;;;27.90;95.70;;;;;;4178049;28;20057;-60
2023/08/02 09:08:50;;;;;;;3.40;0.98;;;28.30;95.90;;;;;;4180754;28;20426;-60
2023/08/02 09:11:11;;;;;;;2.47;0.90;;;29.10;95.60;;;;;;4179207;28;20100;-60
2023/08/02 09:13:31;;;;;;;4.63;1.10;;;29.20;94.20;;;;;;4180187;28;20106;-60
2023/08/02 09:16:07;;;;;;;2.47;1.05;;;28.90;94.00;;;;;;4179867;28;20044;-60
2023/08/02 09:18:36;;;;;;;4.47;0.82;;;28.60;94.40;;;;;;4179596;28;20114;-60
2023/08/02 09:20:56;;;;;;;5.30;0.90;;;28.50;95.20;;;;;;4178945;28;20125;-60
2023/08/02 09:23:16;;;;;;;2.20;0.90;;;28.50;95.50;;;;;;4176531;28;20067;-60
2023/08/02 09:25:36;;;;;;;1.08;0.88;;;28.50;94.80;;;;;;4181825;28;20130;-60
2023/08/02 09:28:00;;;;;;;1.65;0.70;;;28.20;95.60;;;;;;4178954;28;20076;-60
2023/08/02 09:30:34;;;;;;;3.85;0.90;;;27.80;96.30;;;;;;4177211;28;20132;-60
2023/08/02 09:33:13;;;;;;;3.80;0.88;;;28.00;96.00;;;;;;4180602;28;20079;-60
2023/08/02 09:35:53;;;;;;;1.50;0.90;;;28.10;96.20;;;;;;4178501;28;20355;-60
2023/08/02 09:38:14;;;;;;;2.67;0.90;;;27.80;96.20;;;;;;4178708;28;20048;-60
2023/08/02 09:40:38;;;;;;;1.95;0.80;;;28.10;95.70;;;;;;4179032;28;20399;-60
2023/08/02 09:43:18;;;;;;;2.78;0.80;;;28.20;94.90;;;;;;4180599;28;20076;-59
2023/08/02 09:45:38;;;;;;;2.55;0.90;;;28.10;96.30;;;;;;4180444;28;20088;-59
2023/08/02 09:47:59;;;;;;;1.63;0.80;;;28.70;95.50;;;;;;4179804;28;20281;-60
2023/08/02 09:50:19;;;;;;;2.05;0.90;;;28.90;95.10;;;;;;4182226;28;20049;-60
2023/08/02 09:52:40;;;;;;;1.88;0.88;;;28.90;93.70;;;;;;4174882;28;20048;-60
2023/08/02 09:54:59;;;;;;;4.25;1.30;;;29.20;93.70;;;;;;4174917;28;20044;-59
2023/08/02 09:57:26;;;;;;;3.55;1.00;;;29.70;95.80;;;;;;4179401;28;20063;-59
2023/08/02 09:59:46;;;;;;;3.97;0.80;;;30.20;94.30;;;;;;4185128;28;20068;-59
2023/08/02 10:02:06;;;;;;;1.23;0.80;;;29.80;92.60;;;;;;4180322;28;20079;-59
2023/08/02 10:04:27;;;;;;;3.17;0.70;;;29.60;92.60;;;;;;4181905;28;20137;-60
2023/08/02 10:06:51;;;;;;;2.50;0.88;;;29.30;93.40;;;;;;4184487;28;20130;-60
2023/08/02 10:09:18;;;;;;;4.60;0.93;;;29.20;92.80;;;;;;4185340;28;20363;-60
2023/08/02 10:11:50;;;;;;;1.17;0.70;;;29.80;93.80;;;;;;4183183;28;20078;-60
2023/08/02 10:14:11;;;;;;;2.75;0.80;;;30.70;92.90;;;;;;4182995;28;20398;-60
2023/08/02 10:16:31;;;;;;;2.30;0.85;;;30.90;92.00;;;;;;4182346;28;20048;-59
2023/08/02 10:18:52;;;;;;;2.42;0.80;;;30.90;91.60;;;;;;4181388;28;20052;-60
2023/08/02 10:21:13;;;;;;;1.60;0.80;;;31.10;90.60;;;;;;4179999;28;20406;-60
2023/08/02 10:23:35;;;;;;;1.55;1.05;;;30.60;90.90;;;;;;4182982;28;20280;-60
2023/08/02 10:25:55;;;;;;;1.45;1.05;;;30.50;90.70;;;;;;4179032;28;20052;-60
2023/08/02 10:28:16;;;;;;;3.92;0.70;;;30.50;89.30;;;;;;4179765;28;20087;-60
2023/08/02 10:30:36;;;;;;;0.90;0.70;;;30.10;90.80;;;;;;4179863;28;20052;-60
2023/08/02 10:33:21;;;;;;;2.45;0.70;;;30.90;91.60;;;;;;4184607;28;20071;-60
2023/08/02 10:36:05;;;;;;;1.13;0.63;;;31.30;88.70;;;;;;4181424;28;20093;-59
2023/08/02 10:38:26;;;;;;;2.53;0.85;;;30.90;89.00;;;;;;4181424;28;20049;-59
2023/08/02 10:41:02;;;;;;;1.80;0.80;;;30.60;91.00;;;;;;4181474;28;20043;-59
2023/08/02 10:43:22;;;;;;;1.52;0.70;;;31.20;91.20;;;;;;4182364;28;20064;-59
2023/08/02 10:45:41;;;;;;;0.98;0.70;;;31.00;89.60;;;;;;4181107;28;20064;-60
2023/08/02 10:48:40;;;;;;;2.45;0.70;;;31.60;89.80;;;;;;4181469;28;20283;-60
2023/08/02 10:51:00;;;;;;;2.20;0.70;;;31.30;88.30;;;;;;4149978;28;20153;-59
2023/08/02 10:53:20;;;;;;;2.58;0.80;;;31.60;89.30;;;;;;4148836;28;20081;-60
2023/08/02 10:56:02;;;;;;;3.45;0.57;;;31.40;88.20;;;;;;4149641;28;20057;-60
2023/08/02 10:58:22;;;;;;;1.17;0.88;;;31.90;91.00;;;;;;4149887;28;20077;-59
2023/08/02 11:00:42;;;;;;;1.02;0.70;;;32.00;86.60;;;;;;4150369;28;20072;-59
2023/08/02 11:03:02;;;;;;;0.95;0.60;;;31.50;90.90;;;;;;4146860;28;20395;-59
2023/08/02 11:05:46;;;;;;;1.40;0.70;;;31.50;85.50;;;;;;4151903;28;20061;-60
2023/08/02 11:08:09;;;;;;;2.08;0.70;;;31.40;90.00;;;;;;4149782;28;20114;-59
2023/08/02 11:10:29;;;;;;;1.52;0.60;;;31.80;88.50;;;;;;4150134;28;20061;-59
2023/08/02 11:12:55;;;;;;;0.80;0.70;;;32.10;88.00;;;;;;4152556;28;20224;-60
2023/08/02 11:15:16;;;;;;;1.67;0.82;;;32.30;86.80;;;;;;4151790;28;20223;-59
2023/08/02 11:17:35;;;;;;;0.80;0.70;;;32.90;85.10;;;;;;4147975;28;20084;-59
2023/08/02 11:19:59;;;;;;;1.13;0.68;;;32.20;85.90;;;;;;4147267;28;20241;-60
2023/08/02 11:22:22;;;;;;;1.25;0.70;;;32.60;85.30;;;;;;4176576;28;20045;-59
2023/08/02 11:24:50;;;;;;;0.88;0.70;;;32.30;87.10;;;;;;4177069;28;20047;-60
2023/08/02 11:27:20;;;;;;;1.08;0.60;;;32.60;87.30;;;;;;4177746;28;20243;-60
2023/08/02 11:29:54;;;;;;;3.30;0.60;;;32.90;85.20;;;;;;4181322;28;20056;-60
2023/08/02 11:32:14;;;;;;;0.80;0.60;;;32.60;84.90;;;;;;4187086;28;20044;-60
2023/08/02 11:34:39;;;;;;;2.00;0.70;;;32.70;82.90;;;;;;4175598;28;20052;-60
2023/08/02 11:36:59;;;;;;;1.08;0.70;;;33.10;83.20;;;;;;4179905;28;20327;-60
2023/08/02 11:39:20;;;;;;;2.70;0.60;;;33.10;83.10;;;;;;4182380;28;20051;-60
2023/08/02 11:41:40;;;;;;;1.60;0.90;;;33.00;83.00;;;;;;4181648;28;20049;-60
2023/08/02 11:44:00;;;;;;;1.27;0.70;;;32.70;84.50;;;;;;4180661;28;20280;-60
2023/08/02 11:46:23;;;;;;;3.45;0.70;;;32.30;83.10;;;;;;4178684;28;20068;-60
2023/08/02 11:48:43;;;;;;;2.13;0.70;;;32.20;84.30;;;;;;4182298;28;20049;-60
2023/08/02 11:51:03;;;;;;;3.38;0.60;;;32.60;85.20;;;;;;4178429;28;20394;-60
2023/08/02 11:53:23;;;;;;;1.42;0.60;;;32.50;82.20;;;;;;4178518;28;20063;-60
2023/08/02 11:55:44;;;;;;;2.80;0.63;;;32.70;82.20;;;;;;4181969;28;20070;-60
2023/08/02 11:58:08;;;;;;;1.10;0.80;;;32.00;84.50;;;;;;4176022;28;20072;-59
2023/08/02 12:00:29;;;;;;;1.38;0.65;;;32.00;86.10;;;;;;4180939;28;20056;-60
2023/08/02 12:02:49;;;;;;;1.95;0.63;;;32.10;84.30;;;;;;4179114;28;20359;-60
2023/08/02 12:05:21;;;;;;;2.05;0.60;;;32.00;83.00;;;;;;4182699;28;20478;-60
2023/08/02 12:07:41;;;;;;;2.67;0.80;;;32.00;83.70;;;;;;4180669;28;20095;-60
2023/08/02 12:10:01;;;;;;;1.30;0.70;;;32.30;85.70;;;;;;4180997;28;20048;-60
2023/08/02 12:12:22;;;;;;;1.15;0.70;;;32.10;84.10;;;;;;4181013;28;20236;-60
2023/08/02 12:14:41;;;;;;;4.85;1.30;;;32.00;84.20;;;;;;4180208;28;20060;-59
2023/08/02 12:17:01;;;;;;;0.90;0.70;;;32.20;86.00;;;;;;4178387;28;20092;-60
2023/08/02 12:19:40;;;;;;;1.77;0.70;;;32.20;84.30;;;;;;4177152;28;20059;-60
2023/08/02 12:21:59;;;;;;;1.63;0.60;;;32.10;85.60;;;;;;4183385;28;20083;-60
2023/08/02 12:24:19;;;;;;;0.95;0.60;;;31.70;83.60;;;;;;4176640;28;20048;-60
2023/08/02 12:26:39;;;;;;;1.83;0.63;;;31.30;85.40;;;;;;4179170;28;20087;-60
2023/08/02 12:29:01;;;;;;;2.97;0.90;;;31.00;86.70;;;;;;4180518;28;20362;-60